Time;durP1;ratioP1;P1;durP2;ratioP2;P2;SDS_P1;SDS_P2;PMS_P1;PMS_P2;Temp;Humidity;BMP_temperature;BMP_pressure;BME280_temperature;BME280_humidity;BME280_pressure;Samples;Min_cycle;Max_cycle;Signal;HPM_P1;HPM_P2
2022/04/07 00:01:15;;;;;;;;;;;;;;;8.78;86.09;97721.06;5021653;28;19925;-90
2022/04/07 00:03:41;;;;;;;;;;;;;;;8.71;86.37;97705.16;5020733;28;19921;-90
2022/04/07 00:06:09;;;;;;;;;;;;;;;8.71;86.27;97705.97;5021742;28;19924;-90
2022/04/07 00:08:35;;;;;;;;;;;;;;;8.74;86.11;97697.22;5021789;28;19917;-90
2022/04/07 00:11:00;;;;;;;;;;;;;;;8.78;85.90;97675.69;5021212;28;20016;-90
2022/04/07 00:13:25;;;;;;;;;;;;;;;8.67;85.95;97675.09;5021760;28;20012;-91
2022/04/07 00:15:52;;;;;;;;;;;;;;;8.52;86.20;97690.53;5020951;28;20277;-90
2022/04/07 00:18:18;;;;;;;;;;;;;;;8.59;86.11;97689.38;5021386;28;20376;-91
2022/04/07 00:20:43;;;;;;;;;;;;;;;8.62;85.64;97664.34;5020860;28;20296;-91
2022/04/07 00:23:08;;;;;;;;;;;;;;;8.61;85.53;97670.84;5022462;28;20342;-91
2022/04/07 00:25:33;;;;;;;;;;;;;;;8.63;85.73;97668.66;5021711;28;20396;-90
2022/04/07 00:27:59;;;;;;;;;;;;;;;8.54;85.24;97652.25;5021274;28;20019;-91
2022/04/07 00:30:24;;;;;;;;;;;;;;;8.53;85.03;97664.19;5021599;28;19967;-91
2022/04/07 00:32:49;;;;;;;;;;;;;;;8.37;84.74;97647.41;5021182;28;19917;-91
2022/04/07 00:35:15;;;;;;;;;;;;;;;8.43;84.49;97623.66;5022198;28;20019;-92
2022/04/07 00:37:40;;;;;;;;;;;;;;;8.55;84.18;97655.75;5032544;28;20044;-90
2022/04/07 00:40:06;;;;;;;;;;;;;;;8.60;83.79;97645.59;5045092;28;19928;-90
2022/04/07 00:42:31;;;;;;;;;;;;;;;8.61;83.60;97647.22;5024638;28;19921;-90
2022/04/07 00:44:57;;;;;;;;;;;;;;;8.61;83.65;97640.97;5025728;28;19928;-89
2022/04/07 00:47:23;;;;;;;;;;;;;;;8.67;83.77;97637.06;5024772;28;20419;-90
2022/04/07 00:49:48;;;;;;;;;;;;;;;8.67;83.30;97630.81;5025492;28;20011;-90
2022/04/07 00:52:13;;;;;;;;;;;;;;;8.57;83.42;97638.06;5024741;28;19925;-90
2022/04/07 00:54:39;;;;;;;;;;;;;;;8.63;83.62;97617.03;5024715;28;19972;-90
2022/04/07 00:57:05;;;;;;;;;;;;;;;8.57;83.63;97610.09;5025562;28;19932;-91
2022/04/07 00:59:33;;;;;;;;;;;;;;;8.60;83.62;97604.06;5024446;28;19921;-90
2022/04/07 01:01:59;;;;;;;;;;;;;;;8.55;83.76;97594.09;5024739;28;19931;-91
2022/04/07 01:04:24;;;;;;;;;;;;;;;8.56;83.50;97586.75;5024796;28;19929;-91
2022/04/07 01:06:50;;;;;;;;;;;;;;;8.40;83.75;97587.09;5025058;28;20235;-90
2022/04/07 01:09:17;;;;;;;;;;;;;;;8.49;83.33;97587.16;5023762;28;19956;-90
2022/04/07 01:11:43;;;;;;;;;;;;;;;8.52;83.25;97575.69;5024235;28;20413;-91
2022/04/07 01:14:08;;;;;;;;;;;;;;;8.55;82.65;97577.78;5025789;28;19921;-90
2022/04/07 01:16:34;;;;;;;;;;;;;;;8.68;82.38;97572.66;5024375;28;20359;-90
2022/04/07 01:18:59;;;;;;;;;;;;;;;8.62;81.99;97577.41;5024927;28;20262;-91
2022/04/07 01:21:25;;;;;;;;;;;;;;;8.65;82.03;97568.63;5024520;28;20019;-90
2022/04/07 01:23:55;;;;;;;;;;;;;;;8.68;81.51;97573.47;5025100;28;19994;-91
2022/04/07 01:26:20;;;;;;;;;;;;;;;8.74;81.66;97561.38;5023573;28;19949;-92
2022/04/07 01:31:31;;;;;;;;;;;;;;;8.67;81.71;97550.13;5019022;28;19931;-91
2022/04/07 01:33:57;;;;;;;;;;;;;;;8.58;81.70;97551.97;5023884;28;20376;-90
2022/04/07 01:36:23;;;;;;;;;;;;;;;8.61;81.66;97551.34;5025362;28;19927;-91
2022/04/07 01:38:49;;;;;;;;;;;;;;;8.70;81.43;97533.22;5044378;28;19983;-90
2022/04/07 01:41:14;;;;;;;;;;;;;;;8.64;81.33;97546.09;5031971;28;20420;-90
2022/04/07 01:43:41;;;;;;;;;;;;;;;8.55;81.09;97519.94;5024117;28;20372;-90
2022/04/07 01:46:10;;;;;;;;;;;;;;;8.68;80.79;97535.44;5023916;28;19921;-91
2022/04/07 01:48:35;;;;;;;;;;;;;;;8.66;80.59;97515.94;5024083;28;19929;-92
2022/04/07 01:51:02;;;;;;;;;;;;;;;8.69;80.52;97523.44;5023421;28;19925;-90
2022/04/07 01:53:27;;;;;;;;;;;;;;;8.74;80.11;97515.19;5024605;28;19995;-91
2022/04/07 01:55:52;;;;;;;;;;;;;;;8.70;80.00;97511.50;5023820;28;19921;-90
2022/04/07 01:58:18;;;;;;;;;;;;;;;8.74;79.60;97509.75;5024658;28;20023;-91
2022/04/07 02:00:47;;;;;;;;;;;;;;;8.79;79.69;97513.47;5023232;28;19931;-90
2022/04/07 02:03:12;;;;;;;;;;;;;;;8.85;79.14;97506.78;5023838;28;19928;-91
2022/04/07 02:05:37;;;;;;;;;;;;;;;8.90;79.10;97509.38;5024090;28;20284;-89
2022/04/07 02:08:03;;;;;;;;;;;;;;;8.88;79.20;97498.03;5023365;28;19924;-90
2022/04/07 02:10:32;;;;;;;;;;;;;;;8.81;79.34;97505.78;5024191;28;19928;-90
2022/04/07 02:12:58;;;;;;;;;;;;;;;8.85;79.13;97493.19;5023496;28;19948;-90
2022/04/07 02:15:24;;;;;;;;;;;;;;;8.83;79.20;97511.72;5022090;28;20403;-91
2022/04/07 02:17:49;;;;;;;;;;;;;;;8.83;79.70;97498.13;5023200;28;19929;-90
2022/04/07 02:20:14;;;;;;;;;;;;;;;8.81;80.15;97505.78;5023349;28;19929;-89
2022/04/07 02:22:40;;;;;;;;;;;;;;;8.81;80.38;97500.34;5023230;28;19921;-91
2022/04/07 02:25:07;;;;;;;;;;;;;;;8.85;80.44;97490.47;5024019;28;20011;-90
2022/04/07 02:27:35;;;;;;;;;;;;;;;8.81;80.88;97489.47;5023899;28;19932;-89
2022/04/07 02:30:00;;;;;;;;;;;;;;;8.79;81.35;97489.03;5022748;28;19944;-90
2022/04/07 02:32:25;;;;;;;;;;;;;;;8.78;81.69;97474.63;5023334;28;20380;-90
2022/04/07 02:34:50;;;;;;;;;;;;;;;8.82;81.84;97469.38;5023330;28;19918;-89
2022/04/07 02:37:16;;;;;;;;;;;;;;;8.65;82.92;97459.97;5031249;28;20554;-89
2022/04/07 02:39:41;;;;;;;;;;;;;;;8.70;82.56;97464.50;5043612;28;19956;-90
2022/04/07 02:42:06;;;;;;;;;;;;;;;8.75;82.42;97465.16;5025730;28;19976;-91
2022/04/07 02:44:31;;;;;;;;;;;;;;;8.70;82.91;97468.03;5023632;28;19924;-91
2022/04/07 02:46:57;;;;;;;;;;;;;;;8.66;82.62;97445.31;5021348;28;19947;-90
2022/04/07 02:49:22;;;;;;;;;;;;;;;8.71;83.05;97449.78;5023458;28;20391;-91
2022/04/07 02:51:47;;;;;;;;;;;;;;;8.75;82.59;97450.78;5022262;28;19991;-91
2022/04/07 02:54:12;;;;;;;;;;;;;;;8.71;83.19;97442.44;5022017;28;20644;-91
2022/04/07 02:56:37;;;;;;;;;;;;;;;8.73;83.20;97433.97;5023655;28;19921;-90
2022/04/07 02:59:03;;;;;;;;;;;;;;;8.74;83.00;97425.53;5023023;28;20278;-91
2022/04/07 03:01:29;;;;;;;;;;;;;;;8.80;83.24;97428.13;5021414;28;20019;-92
2022/04/07 03:03:55;;;;;;;;;;;;;;;8.62;83.41;97415.22;5022821;28;20012;-91
2022/04/07 03:06:20;;;;;;;;;;;;;;;8.78;83.47;97414.03;5022943;28;20392;-91
2022/04/07 03:08:46;;;;;;;;;;;;;;;8.69;83.48;97409.34;5022097;28;20221;-91
2022/04/07 03:11:13;;;;;;;;;;;;;;;8.76;83.60;97392.63;5022900;28;19925;-90
2022/04/07 03:13:38;;;;;;;;;;;;;;;8.56;84.10;97388.47;5023246;28;19928;-91
2022/04/07 03:16:03;;;;;;;;;;;;;;;8.73;83.68;97382.38;5022350;28;19921;-91
2022/04/07 03:18:29;;;;;;;;;;;;;;;8.66;83.24;97379.31;5022426;28;19928;-91
2022/04/07 03:20:54;;;;;;;;;;;;;;;8.78;83.08;97367.84;5022185;28;19925;-92
2022/04/07 03:23:19;;;;;;;;;;;;;;;8.72;83.25;97373.44;5023080;28;19928;-90
2022/04/07 03:25:45;;;;;;;;;;;;;;;8.56;83.85;97359.41;5022243;28;20529;-90
2022/04/07 03:28:10;;;;;;;;;;;;;;;8.60;83.64;97354.19;5023241;28;20261;-89
2022/04/07 03:30:35;;;;;;;;;;;;;;;8.65;83.69;97340.47;5021378;28;19932;-91
2022/04/07 03:33:02;;;;;;;;;;;;;;;8.59;83.30;97341.72;5023040;28;19921;-91
2022/04/07 03:35:27;;;;;;;;;;;;;;;8.61;83.29;97339.47;5022181;28;20363;-91
2022/04/07 03:37:52;;;;;;;;;;;;;;;8.46;83.13;97327.88;5034858;28;19923;-91
2022/04/07 03:40:17;;;;;;;;;;;;;;;8.55;83.39;97330.63;5038038;28;19924;-91
2022/04/07 03:42:43;;;;;;;;;;;;;;;8.50;82.83;97320.69;5022133;28;19917;-91
2022/04/07 03:45:08;;;;;;;;;;;;;;;8.51;82.65;97311.47;5023131;28;20026;-91
2022/04/07 03:47:33;;;;;;;;;;;;;;;8.60;82.30;97316.16;5021333;28;19925;-90
2022/04/07 03:49:58;;;;;;;;;;;;;;;8.62;82.16;97297.63;5022494;28;19921;-91
2022/04/07 03:52:25;;;;;;;;;;;;;;;8.70;81.72;97310.47;5001730;28;22755;-91
2022/04/07 03:54:51;;;;;;;;;;;;;;;8.75;81.18;97310.31;5002937;28;20135;-90
2022/04/07 03:57:16;;;;;;;;;;;;;;;8.75;81.23;97304.88;5000937;28;19964;-90
2022/04/07 03:59:42;;;;;;;;;;;;;;;8.79;80.78;97302.34;5002812;28;20384;-90
2022/04/07 04:02:08;;;;;;;;;;;;;;;8.83;80.38;97308.75;5027345;28;19934;-90
2022/04/07 04:04:33;;;;;;;;;;;;;;;8.86;79.56;97312.75;5041846;28;19916;-91
2022/04/07 04:07:11;;;;;;;;;;;;;;;8.82;79.34;97295.47;5040623;28;19917;-90
2022/04/07 04:09:36;;;;;;;;;;;;;;;8.85;78.74;97273.91;5041532;28;19917;-90
2022/04/07 04:12:02;;;;;;;;;;;;;;;8.80;78.64;97282.22;5024628;28;20434;-90
2022/04/07 04:14:28;;;;;;;;;;;;;;;8.97;78.25;97284.19;5021564;28;19928;-91
2022/04/07 04:16:53;;;;;;;;;;;;;;;8.93;77.75;97279.72;5020275;28;19921;-92
2022/04/07 04:19:19;;;;;;;;;;;;;;;8.92;77.87;97273.47;5021652;28;19921;-90
2022/04/07 04:21:44;;;;;;;;;;;;;;;8.91;77.71;97265.63;5021712;28;20435;-89
2022/04/07 04:24:12;;;;;;;;;;;;;;;8.87;78.13;97257.28;5022101;28;20408;-90
2022/04/07 04:26:37;;;;;;;;;;;;;;;8.89;77.66;97257.78;5021167;28;20283;-91
2022/04/07 04:29:03;;;;;;;;;;;;;;;8.91;77.58;97257.47;5021718;28;19917;-90
2022/04/07 04:31:28;;;;;;;;;;;;;;;8.82;77.77;97252.00;5020928;28;19925;-91
2022/04/07 04:33:53;;;;;;;;;;;;;;;8.86;78.15;97242.13;5021241;28;20392;-91
2022/04/07 04:36:19;;;;;;;;;;;;;;;8.95;78.09;97240.22;5021382;28;19963;-90
2022/04/07 04:38:44;;;;;;;;;;;;;;;8.93;78.33;97231.56;5041598;28;20435;-90
2022/04/07 04:41:09;;;;;;;;;;;;;;;9.04;78.07;97236.72;5031867;28;20012;-90
2022/04/07 04:43:35;;;;;;;;;;;;;;;9.07;77.78;97225.22;5020611;28;20702;-91
2022/04/07 04:46:00;;;;;;;;;;;;;;;9.05;78.36;97205.72;5021394;28;19928;-91
2022/04/07 04:48:25;;;;;;;;;;;;;;;9.06;78.31;97207.31;5019222;28;19936;-90
2022/04/07 04:50:50;;;;;;;;;;;;;;;9.08;78.49;97215.94;5021259;28;20011;-91
2022/04/07 04:53:16;;;;;;;;;;;;;;;9.11;80.68;97216.09;5021639;28;19971;-89
2022/04/07 04:55:41;;;;;;;;;;;;;;;9.25;80.88;97203.50;5021429;28;19949;-90
2022/04/07 04:58:06;;;;;;;;;;;;;;;9.17;81.31;97189.56;5022188;28;19920;-90
2022/04/07 05:00:31;;;;;;;;;;;;;;;8.94;82.29;97189.72;5020462;28;19980;-90
2022/04/07 05:02:56;;;;;;;;;;;;;;;8.79;83.17;97184.72;5021895;28;19917;-90
2022/04/07 05:05:22;;;;;;;;;;;;;;;8.80;83.40;97172.75;5020989;28;20472;-91
2022/04/07 05:07:47;;;;;;;;;;;;;;;8.93;83.65;97166.34;5021330;28;20439;-91
2022/04/07 05:12:56;;;;;;;;;;;;;;;8.71;85.06;97159.94;5021873;28;20407;-90
2022/04/07 05:15:21;;;;;;;;;;;;;;;8.64;85.74;97156.88;5020944;28;20626;-91
2022/04/07 05:17:47;;;;;;;;;;;;;;;8.69;85.88;97145.88;5020402;28;19925;-89
2022/04/07 05:20:12;;;;;;;;;;;;;;;8.75;85.95;97144.59;5020814;28;20376;-89
2022/04/07 05:22:37;;;;;;;;;;;;;;;8.71;86.17;97143.63;5020822;28;20055;-90
2022/04/07 05:25:03;;;;;;;;;;;;;;;8.58;86.28;97139.94;5023945;28;19964;-90
2022/04/07 05:27:28;;;;;;;;;;;;;;;8.61;86.76;97119.47;5024116;28;19960;-90
2022/04/07 05:29:54;;;;;;;;;;;;;;;8.56;86.81;97130.47;5023922;28;19929;-90
2022/04/07 05:32:19;;;;;;;;;;;;;;;8.60;87.05;97129.53;5023912;28;19939;-90
2022/04/07 05:34:44;;;;;;;;;;;;;;;8.57;87.13;97122.03;5024213;28;19925;-90
2022/04/07 05:37:09;;;;;;;;;;;;;;;8.59;86.88;97114.38;5026090;28;20435;-90
2022/04/07 05:39:34;;;;;;;;;;;;;;;8.58;87.19;97110.06;5023014;28;19963;-92
2022/04/07 05:41:59;;;;;;;;;;;;;;;8.54;87.35;97098.22;5024301;28;19967;-91
2022/04/07 05:44:25;;;;;;;;;;;;;;;8.63;87.56;97092.81;5022268;28;19925;-92
2022/04/07 05:46:51;;;;;;;;;;;;;;;8.56;87.98;97095.19;5022846;28;20017;-91
2022/04/07 05:49:16;;;;;;;;;;;;;;;8.50;87.57;97084.44;5023372;28;19923;-91
2022/04/07 05:51:41;;;;;;;;;;;;;;;8.40;88.21;97090.19;5022690;28;20359;-91
2022/04/07 05:54:07;;;;;;;;;;;;;;;8.49;88.30;97077.44;5023160;28;19921;-91
2022/04/07 05:56:32;;;;;;;;;;;;;;;8.46;88.61;97050.13;5022857;28;20462;-91
2022/04/07 05:58:58;;;;;;;;;;;;;;;8.44;88.22;97058.56;5024455;28;20419;-92
2022/04/07 06:01:23;;;;;;;;;;;;;;;8.43;88.79;97061.59;5022759;28;20377;-92
2022/04/07 06:03:48;;;;;;;;;;;;;;;8.41;88.25;97054.59;5023791;28;19921;-90
2022/04/07 06:06:13;;;;;;;;;;;;;;;8.60;87.82;97039.91;5023302;28;20437;-91
2022/04/07 06:08:39;;;;;;;;;;;;;;;8.55;87.44;97025.66;5023897;28;19927;-91
2022/04/07 06:11:04;;;;;;;;;;;;;;;8.73;87.40;97021.88;5023192;28;19924;-91
2022/04/07 06:13:29;;;;;;;;;;;;;;;8.65;87.34;97025.38;5023649;28;19927;-91
2022/04/07 06:15:54;;;;;;;;;;;;;;;8.64;87.60;97018.38;5023271;28;20426;-91
2022/04/07 06:18:19;;;;;;;;;;;;;;;8.79;87.21;97019.78;5023066;28;19932;-91
2022/04/07 06:20:46;;;;;;;;;;;;;;;8.82;87.01;96996.63;5022818;28;19961;-91
2022/04/07 06:23:12;;;;;;;;;;;;;;;8.71;87.16;97009.72;5023127;28;19921;-91
2022/04/07 06:25:37;;;;;;;;;;;;;;;8.67;88.20;97001.41;5006841;28;19983;-91
2022/04/07 06:28:04;;;;;;;;;;;;;;;8.71;87.62;96991.53;5014058;28;19936;-91
2022/04/07 06:30:29;;;;;;;;;;;;;;;8.68;87.85;96999.50;5022434;28;20028;-91
2022/04/07 06:32:56;;;;;;;;;;;;;;;8.58;88.46;96998.72;5023500;28;20015;-91
2022/04/07 06:35:21;;;;;;;;;;;;;;;8.55;88.78;96996.59;5022213;28;19960;-91
2022/04/07 06:37:54;;;;;;;;;;;;;;;8.54;88.83;96986.88;5020135;28;19977;-90
2022/04/07 06:40:20;;;;;;;;;;;;;;;8.56;89.55;96989.25;5015509;28;20399;-91
2022/04/07 06:42:46;;;;;;;;;;;;;;;8.63;88.83;96967.88;5024438;28;19921;-90
2022/04/07 06:45:11;;;;;;;;;;;;;;;8.57;88.85;96961.00;5023093;28;20359;-91
2022/04/07 06:47:39;;;;;;;;;;;;;;;8.63;88.91;96957.00;5017989;28;19964;-91
2022/04/07 06:50:06;;;;;;;;;;;;;;;8.59;87.15;96959.56;5022634;28;20414;-90
2022/04/07 06:52:31;;;;;;;;;;;;;;;8.57;87.54;96961.00;5023786;28;19921;-90
2022/04/07 06:54:56;;;;;;;;;;;;;;;8.63;87.60;96948.84;5023808;28;19917;-90
2022/04/07 06:57:21;;;;;;;;;;;;;;;8.62;87.77;96934.47;5022942;28;19928;-90
2022/04/07 06:59:46;;;;;;;;;;;;;;;8.88;87.55;96932.84;5023395;28;19929;-90
2022/04/07 07:02:12;;;;;;;;;;;;;;;8.93;87.74;96916.38;5021828;28;20380;-90
2022/04/07 07:04:37;;;;;;;;;;;;;;;9.08;87.09;96911.53;5023083;28;19921;-89
2022/04/07 07:07:02;;;;;;;;;;;;;;;8.85;87.81;96896.25;5022883;28;20427;-89
2022/04/07 07:09:27;;;;;;;;;;;;;;;8.90;88.16;96895.28;5022080;28;19961;-90
2022/04/07 07:11:52;;;;;;;;;;;;;;;8.97;88.33;96884.72;5022701;28;19921;-90
2022/04/07 07:17:20;;;;;;;;;;;;;;;8.90;87.16;96873.56;5019067;28;19979;-90
2022/04/07 07:19:45;;;;;;;;;;;;;;;9.04;87.33;96853.50;5017789;28;19964;-91
2022/04/07 07:22:11;;;;;;;;;;;;;;;8.93;87.23;96839.50;5017242;28;20122;-90
2022/04/07 07:24:36;;;;;;;;;;;;;;;9.07;87.29;96828.41;5019543;28;19925;-91
2022/04/07 07:27:01;;;;;;;;;;;;;;;9.10;87.39;96834.00;5020350;28;19940;-90
2022/04/07 07:29:26;;;;;;;;;;;;;;;8.94;87.70;96809.28;5019015;28;19976;-90
2022/04/07 07:31:51;;;;;;;;;;;;;;;8.87;88.61;96811.69;5019499;28;19921;-90
2022/04/07 07:34:17;;;;;;;;;;;;;;;8.75;88.58;96801.53;5022653;28;19928;-89
2022/04/07 07:36:42;;;;;;;;;;;;;;;8.81;88.56;96770.34;5021544;28;19925;-90
2022/04/07 07:39:08;;;;;;;;;;;;;;;8.95;88.17;96758.47;5021790;28;20427;-89
2022/04/07 07:41:33;;;;;;;;;;;;;;;8.99;87.46;96768.34;5021856;28;19935;-89
2022/04/07 07:43:58;;;;;;;;;;;;;;;8.85;87.87;96762.31;5022243;28;19921;-89
2022/04/07 07:46:23;;;;;;;;;;;;;;;8.78;88.59;96756.63;5020203;28;20003;-90
2022/04/07 07:48:49;;;;;;;;;;;;;;;8.82;88.31;96736.63;5021740;28;20148;-90
2022/04/07 07:51:15;;;;;;;;;;;;;;;8.70;88.62;96753.63;5022270;28;19947;-90
2022/04/07 07:53:40;;;;;;;;;;;;;;;8.72;88.77;96737.81;5020786;28;19917;-91
2022/04/07 07:56:05;;;;;;;;;;;;;;;8.57;89.27;96739.13;5021628;28;19928;-89
2022/04/07 07:58:31;;;;;;;;;;;;;;;8.67;89.21;96718.16;5022306;28;20186;-90
2022/04/07 08:00:56;;;;;;;;;;;;;;;8.80;88.96;96716.34;5021120;28;20400;-90
2022/04/07 08:03:22;;;;;;;;;;;;;;;8.87;88.82;96706.53;5021186;28;19921;-90
2022/04/07 08:05:47;;;;;;;;;;;;;;;8.98;88.54;96687.16;5014351;28;19929;-89
2022/04/07 08:08:13;;;;;;;;;;;;;;;9.06;88.54;96670.00;5001308;28;19929;-89
2022/04/07 08:10:39;;;;;;;;;;;;;;;8.99;88.96;96680.56;5007230;28;20197;-90
2022/04/07 08:13:04;;;;;;;;;;;;;;;9.07;88.43;96676.22;5022020;28;19921;-89
2022/04/07 08:15:31;;;;;;;;;;;;;;;8.99;88.92;96670.50;5021165;28;19947;-89
2022/04/07 08:18:09;;;;;;;;;;;;;;;8.85;89.14;96670.75;5021198;28;19929;-89
2022/04/07 08:20:34;;;;;;;;;;;;;;;8.69;89.80;96667.81;5021441;28;19926;-89
2022/04/07 08:22:59;;;;;;;;;;;;;;;8.67;90.75;96652.97;5021687;28;19944;-90
2022/04/07 08:25:24;;;;;;;;;;;;;;;8.84;90.38;96654.78;5021825;28;20194;-89
2022/04/07 08:27:50;;;;;;;;;;;;;;;8.95;89.98;96652.50;5019832;28;19917;-90
2022/04/07 08:30:15;;;;;;;;;;;;;;;8.80;90.26;96629.41;5018818;28;19941;-90
2022/04/07 08:32:41;;;;;;;;;;;;;;;8.94;90.08;96638.09;5021727;28;19929;-91
2022/04/07 08:35:06;;;;;;;;;;;;;;;8.86;90.09;96612.59;5018010;28;19928;-90
2022/04/07 08:37:31;;;;;;;;;;;;;;;9.00;89.81;96622.41;5002372;28;20416;-90
2022/04/07 08:39:57;;;;;;;;;;;;;;;9.10;89.98;96610.34;5002990;28;19924;-91
2022/04/07 08:42:22;;;;;;;;;;;;;;;9.18;89.78;96609.47;5018632;28;19932;-90
2022/04/07 08:44:48;;;;;;;;;;;;;;;9.35;89.29;96607.72;5000788;28;19917;-89
2022/04/07 08:47:14;;;;;;;;;;;;;;;9.23;89.42;96609.25;5014909;28;19925;-90
2022/04/07 08:49:42;;;;;;;;;;;;;;;9.20;90.02;96598.25;5020674;28;20387;-90
2022/04/07 08:52:08;;;;;;;;;;;;;;;9.22;90.12;96582.41;5021263;28;19929;-90
2022/04/07 08:54:33;;;;;;;;;;;;;;;9.05;90.27;96556.19;5021588;28;19923;-90
2022/04/07 08:56:58;;;;;;;;;;;;;;;8.98;91.40;96586.59;5020940;28;20782;-90
2022/04/07 08:59:23;;;;;;;;;;;;;;;8.92;91.25;96566.19;5022273;28;20344;-90
2022/04/07 09:01:49;;;;;;;;;;;;;;;9.06;90.96;96560.50;5025338;28;19932;-90
2022/04/07 09:04:14;;;;;;;;;;;;;;;9.08;91.42;96548.16;5025724;28;19917;-90
2022/04/07 09:06:40;;;;;;;;;;;;;;;9.03;91.58;96555.72;5024816;28;19976;-90
2022/04/07 09:09:10;;;;;;;;;;;;;;;9.08;91.67;96559.03;5025329;28;20011;-91
2022/04/07 09:11:35;;;;;;;;;;;;;;;9.03;91.99;96545.63;5024582;28;19933;-90
2022/04/07 09:14:00;;;;;;;;;;;;;;;9.11;92.11;96546.72;5025013;28;19936;-91
2022/04/07 09:16:27;;;;;;;;;;;;;;;9.11;91.89;96546.72;5024772;28;19986;-91
2022/04/07 09:18:53;;;;;;;;;;;;;;;9.20;92.64;96536.53;5024643;28;19932;-91
2022/04/07 09:21:27;;;;;;;;;;;;;;;9.41;91.81;96527.53;5024206;28;19920;-90
2022/04/07 09:23:53;;;;;;;;;;;;;;;9.44;91.21;96515.97;5010430;28;19929;-90
2022/04/07 09:26:18;;;;;;;;;;;;;;;9.46;90.56;96500.13;5025182;28;19924;-89
2022/04/07 09:28:43;;;;;;;;;;;;;;;9.56;90.65;96495.38;5023830;28;19925;-91
2022/04/07 09:31:13;;;;;;;;;;;;;;;9.65;90.46;96509.66;5019283;28;19924;-91
2022/04/07 09:33:38;;;;;;;;;;;;;;;9.81;90.41;96481.78;5022548;28;20368;-91
2022/04/07 09:36:05;;;;;;;;;;;;;;;10.20;89.71;96494.22;5022437;28;19979;-91
2022/04/07 09:38:31;;;;;;;;;;;;;;;10.04;90.39;96563.78;5023352;28;19923;-89
2022/04/07 09:41:10;;;;;;;;;;;;;;;9.56;86.72;96602.22;5022846;28;19925;-91
2022/04/07 09:43:42;;;;;;;;;;;;;;;8.36;89.99;96654.88;5022215;28;19964;-93
2022/04/07 09:46:10;;;;;;;;;;;;;;;7.79;93.49;96631.28;5021279;28;19953;-91
2022/04/07 09:48:36;;;;;;;;;;;;;;;7.44;94.35;96636.78;5021567;28;20364;-91
2022/04/07 09:51:03;;;;;;;;;;;;;;;7.75;96.05;96657.44;5023414;28;19921;-90
2022/04/07 09:53:33;;;;;;;;;;;;;;;7.56;96.10;96655.91;5020558;28;19959;-90
2022/04/07 09:55:59;;;;;;;;;;;;;;;7.43;96.21;96649.53;5023507;28;19921;-89
2022/04/07 09:58:24;;;;;;;;;;;;;;;7.39;95.88;96654.00;5023184;28;20359;-89
2022/04/07 10:00:49;;;;;;;;;;;;;;;7.61;96.06;96654.16;5024027;28;20362;-90
2022/04/07 10:03:15;;;;;;;;;;;;;;;7.85;96.07;96671.81;5023804;28;19928;-89
2022/04/07 10:05:41;;;;;;;;;;;;;;;7.82;94.49;96646.91;5023395;28;20439;-89
2022/04/07 10:08:06;;;;;;;;;;;;;;;7.78;95.61;96650.59;5023272;28;19925;-90
2022/04/07 10:13:16;;;;;;;;;;;;;;;7.85;94.86;96650.09;5022655;28;19927;-89
2022/04/07 10:15:41;;;;;;;;;;;;;;;7.93;93.96;96658.19;5023136;28;19921;-90
2022/04/07 10:18:10;;;;;;;;;;;;;;;7.99;95.06;96648.00;5023276;28;20152;-90
2022/04/07 10:20:38;;;;;;;;;;;;;;;8.17;94.39;96643.31;5023435;28;19931;-89
2022/04/07 10:23:09;;;;;;;;;;;;;;;8.17;94.45;96653.34;5023056;28;20376;-89
2022/04/07 10:25:37;;;;;;;;;;;;;;;8.56;94.23;96639.75;5023107;28;20237;-89
2022/04/07 10:28:04;;;;;;;;;;;;;;;8.72;93.46;96639.22;5023341;28;19918;-89
2022/04/07 10:30:29;;;;;;;;;;;;;;;8.44;92.02;96640.44;5038304;28;19960;-89
2022/04/07 10:32:56;;;;;;;;;;;;;;;8.62;92.29;96640.41;5023040;28;20287;-89
2022/04/07 10:35:28;;;;;;;;;;;;;;;8.69;92.68;96642.56;5022726;28;19921;-89
2022/04/07 10:37:53;;;;;;;;;;;;;;;8.74;92.41;96621.47;5023075;28;19932;-90
2022/04/07 10:40:36;;;;;;;;;;;;;;;9.11;91.50;96633.69;5022876;28;20292;-89
2022/04/07 10:43:10;;;;;;;;;;;;;;;9.72;90.29;96622.56;5022364;28;19956;-90
2022/04/07 10:45:43;;;;;;;;;;;;;;;9.97;88.71;96617.16;5022861;28;20419;-91
2022/04/07 10:48:23;;;;;;;;;;;;;;;10.22;88.69;96628.88;5022819;28;19925;-90
2022/04/07 10:50:51;;;;;;;;;;;;;;;10.37;87.50;96641.03;5023434;28;19932;-90
2022/04/07 10:53:19;;;;;;;;;;;;;;;10.34;85.50;96628.09;5023055;28;20376;-89
2022/04/07 10:55:52;;;;;;;;;;;;;;;10.55;85.92;96619.06;5021470;28;19928;-91
2022/04/07 10:58:19;;;;;;;;;;;;;;;10.64;85.18;96621.63;5020421;28;19948;-90
2022/04/07 11:00:44;;;;;;;;;;;;;;;11.00;83.77;96616.47;5018278;28;19925;-90
2022/04/07 11:03:13;;;;;;;;;;;;;;;11.30;82.77;96616.16;5022605;28;20263;-90
2022/04/07 11:05:52;;;;;;;;;;;;;;;11.12;80.72;96625.75;5022196;28;20132;-89
2022/04/07 11:08:21;;;;;;;;;;;;;;;11.35;80.85;96636.13;5020254;28;20322;-89
2022/04/07 11:10:48;;;;;;;;;;;;;;;11.53;79.83;96642.84;5021927;28;19924;-90
2022/04/07 11:13:13;;;;;;;;;;;;;;;11.71;79.65;96652.69;5021802;28;19932;-90
2022/04/07 11:15:54;;;;;;;;;;;;;;;11.74;79.32;96641.06;5021664;28;20366;-90
2022/04/07 11:18:25;;;;;;;;;;;;;;;11.81;79.41;96651.38;5022559;28;20406;-89
2022/04/07 11:21:02;;;;;;;;;;;;;;;12.02;78.29;96635.56;5021650;28;20027;-91
2022/04/07 11:23:49;;;;;;;;;;;;;;;12.39;77.46;96641.94;5019676;28;19932;-89
2022/04/07 11:26:27;;;;;;;;;;;;;;;11.97;75.04;96649.47;5020618;28;20683;-89
2022/04/07 11:29:04;;;;;;;;;;;;;;;12.20;76.25;96656.31;5020168;28;19925;-90
2022/04/07 11:31:45;;;;;;;;;;;;;;;12.26;75.11;96654.91;5021273;28;19929;-89
2022/04/07 11:34:29;;;;;;;;;;;;;;;12.70;73.64;96659.44;5022042;28;19921;-90
2022/04/07 11:36:55;;;;;;;;;;;;;;;12.92;70.11;96668.13;5021216;28;19932;-89
2022/04/07 11:39:20;;;;;;;;;;;;;;;12.83;69.80;96643.72;5021553;28;19928;-91
2022/04/07 11:41:45;;;;;;;;;;;;;;;13.13;69.30;96623.28;5020457;28;20012;-90
2022/04/07 11:44:12;;;;;;;;;;;;;;;13.53;68.78;96645.16;5022016;28;19929;-88
2022/04/07 11:46:37;;;;;;;;;;;;;;;13.36;62.13;96636.25;5015505;28;19957;-91
2022/04/07 11:49:04;;;;;;;;;;;;;;;13.16;65.32;96658.09;5020917;28;19953;-90
2022/04/07 11:51:32;;;;;;;;;;;;;;;13.24;62.07;96664.50;5021106;28;19925;-89
2022/04/07 11:53:57;;;;;;;;;;;;;;;13.21;63.92;96657.03;5022102;28;19921;-89
2022/04/07 11:56:27;;;;;;;;;;;;;;;13.61;62.74;96690.69;5021896;28;20468;-89
2022/04/07 11:58:53;;;;;;;;;;;;;;;13.86;62.14;96668.50;5021709;28;19979;-91
2022/04/07 12:01:18;;;;;;;;;;;;;;;14.04;60.96;96683.66;5021702;28;20403;-89
2022/04/07 12:03:43;;;;;;;;;;;;;;;13.91;59.64;96686.59;5021275;28;19920;-90
2022/04/07 12:06:23;;;;;;;;;;;;;;;14.12;56.66;96679.88;5021836;28;20330;-90
2022/04/07 12:08:49;;;;;;;;;;;;;;;14.01;55.23;96666.03;5018294;28;19967;-90
2022/04/07 12:11:14;;;;;;;;;;;;;;;13.59;54.42;96671.09;5020191;28;19921;-90
2022/04/07 12:13:39;;;;;;;;;;;;;;;13.26;56.12;96688.78;5021438;28;19932;-91
2022/04/07 12:16:07;;;;;;;;;;;;;;;13.01;54.04;96678.09;5020807;28;20291;-90
2022/04/07 12:18:33;;;;;;;;;;;;;;;13.41;54.98;96682.47;5021580;28;20307;-90
2022/04/07 12:21:02;;;;;;;;;;;;;;;13.85;56.30;96686.06;5020809;28;20368;-90
2022/04/07 12:23:28;;;;;;;;;;;;;;;14.18;56.35;96688.59;5021178;28;19921;-91
2022/04/07 12:25:57;;;;;;;;;;;;;;;14.29;54.55;96695.06;5013513;28;19921;-90
2022/04/07 12:28:22;;;;;;;;;;;;;;;14.22;55.02;96690.25;5018768;28;19921;-90
2022/04/07 12:30:51;;;;;;;;;;;;;;;14.27;54.23;96694.66;5015737;28;19927;-91
2022/04/07 12:33:36;;;;;;;;;;;;;;;14.12;56.21;96691.66;5020322;28;19925;-91
2022/04/07 12:36:01;;;;;;;;;;;;;;;14.41;54.59;96690.56;5020147;28;19952;-90
2022/04/07 12:38:26;;;;;;;;;;;;;;;14.42;52.22;96692.16;5019273;28;20050;-91
2022/04/07 12:40:52;;;;;;;;;;;;;;;14.96;53.54;96686.75;5018496;28;19957;-91
2022/04/07 12:43:17;;;;;;;;;;;;;;;13.95;50.39;96689.38;5019616;28;20475;-91
2022/04/07 12:45:57;;;;;;;;;;;;;;;13.63;53.10;96699.34;5019517;28;20317;-91
2022/04/07 12:48:23;;;;;;;;;;;;;;;12.86;50.57;96716.03;5019439;28;20356;-90
2022/04/07 12:50:48;;;;;;;;;;;;;;;12.20;54.49;96735.50;5017074;28;19921;-91
2022/04/07 12:53:29;;;;;;;;;;;;;;;11.86;58.47;96776.69;5018530;28;19959;-90
2022/04/07 12:55:54;;;;;;;;;;;;;;;11.52;60.24;96785.88;5020474;28;20044;-91
2022/04/07 12:58:26;;;;;;;;;;;;;;;11.24;60.63;96783.88;5020778;28;20007;-89
2022/04/07 13:00:57;;;;;;;;;;;;;;;11.09;62.20;96783.44;5016998;28;20187;-91
2022/04/07 13:03:22;;;;;;;;;;;;;;;10.68;63.54;96807.81;5016602;28;19924;-90